createdAt,value
2023-04-14T04:00:28.688Z,5.49
2023-04-14T04:05:28.610Z,5.54
2023-04-14T04:10:28.560Z,5.51
2023-04-14T04:15:28.527Z,5.46
2023-04-14T04:20:28.513Z,5.48
2023-04-14T04:25:28.392Z,5.57
2023-04-14T04:30:28.336Z,5.67
2023-04-14T04:35:28.309Z,5.73
2023-04-14T04:40:28.249Z,5.71
2023-04-14T04:45:28.171Z,5.49
2023-04-14T04:50:28.121Z,5.49
2023-04-14T04:55:28.098Z,5.49
2023-04-14T05:00:28.073Z,5.72
2023-04-14T05:05:27.976Z,5.76
2023-04-14T05:10:27.914Z,5.88
2023-04-14T05:15:27.887Z,6.15
2023-04-14T05:20:27.947Z,6.40
2023-04-14T05:25:27.776Z,6.62
2023-04-14T05:30:27.723Z,6.91
2023-04-14T05:35:27.670Z,7.17
2023-04-14T05:40:27.611Z,8.11
2023-04-14T05:45:27.541Z,9.00
2023-04-14T05:50:27.495Z,11.28
2023-04-14T05:55:27.455Z,13.49
2023-04-14T06:00:28.001Z,14.01
2023-04-14T06:05:27.473Z,15.00
2023-04-14T06:10:27.262Z,15.55
2023-04-14T06:15:27.244Z,15.55
2023-04-14T06:20:27.193Z,15.75
2023-04-14T06:25:27.110Z,16.33
2023-04-14T06:30:27.065Z,16.31
2023-04-14T06:35:33.619Z,16.29
2023-04-14T06:40:28.001Z,16.30
2023-04-14T06:45:26.881Z,16.93
2023-04-14T06:50:26.856Z,17.96
2023-04-14T06:55:26.786Z,18.37
2023-04-14T07:00:26.780Z,17.55
2023-04-14T07:05:26.697Z,17.92
2023-04-14T07:10:26.833Z,18.33
2023-04-14T07:15:26.560Z,18.97
2023-04-14T07:20:26.575Z,18.66
2023-04-14T07:25:26.466Z,18.62
2023-04-14T07:30:26.459Z,18.96
2023-04-14T07:35:26.347Z,18.71
2023-04-14T07:40:26.404Z,17.98
2023-04-14T07:45:26.226Z,18.55
2023-04-14T07:50:26.285Z,18.86
2023-04-14T07:55:27.475Z,18.63
2023-04-14T08:00:26.096Z,18.88
2023-04-14T08:05:26.108Z,18.43
2023-04-14T08:10:25.956Z,19.32
2023-04-14T08:15:25.909Z,18.55
2023-04-14T08:20:25.858Z,18.15
2023-04-14T08:25:25.783Z,17.84
2023-04-14T08:30:25.745Z,18.02
2023-04-14T08:35:35.233Z,18.31
2023-04-14T08:40:26.682Z,17.87
2023-04-14T08:45:25.640Z,19.88
2023-04-14T08:50:25.532Z,20.16
2023-04-14T08:55:25.604Z,19.02
2023-04-14T09:00:25.427Z,19.09
2023-04-14T09:05:25.364Z,18.09
2023-04-14T09:10:25.319Z,18.42
2023-04-14T09:15:25.247Z,18.91
2023-04-14T09:20:36.794Z,18.68
2023-04-14T09:25:26.155Z,17.28
2023-04-14T09:30:25.061Z,16.29
2023-04-14T09:35:25.005Z,16.92
2023-04-14T09:40:24.978Z,17.50
2023-04-14T09:45:24.926Z,17.01
2023-04-14T09:50:24.876Z,16.92
2023-04-14T09:55:24.806Z,17.27
2023-04-14T10:00:24.778Z,16.03
2023-04-14T10:05:24.713Z,16.80
2023-04-14T10:10:24.778Z,17.14
2023-04-14T10:15:24.606Z,17.11
2023-04-14T10:20:24.574Z,17.63
2023-04-14T10:25:24.494Z,17.52
2023-04-14T10:30:24.451Z,17.67
2023-04-14T10:35:24.394Z,17.13
2023-04-14T10:40:24.344Z,17.64
2023-04-14T10:45:24.272Z,17.83
2023-04-14T10:50:24.219Z,17.64
2023-04-14T10:55:24.176Z,17.97
2023-04-14T11:00:24.105Z,17.15
2023-04-14T11:05:24.037Z,17.09
2023-04-14T11:10:23.989Z,17.88
2023-04-14T11:15:23.953Z,17.61
2023-04-14T11:20:23.975Z,17.60
2023-04-14T11:25:25.035Z,17.88
2023-04-14T11:30:23.780Z,18.08
2023-04-14T11:35:23.708Z,18.01
2023-04-14T11:40:23.690Z,18.64
2023-04-14T11:45:23.770Z,18.74
2023-04-14T11:50:23.536Z,19.06
2023-04-14T11:55:23.481Z,18.45
2023-04-14T12:00:23.459Z,17.82
2023-04-14T12:05:23.378Z,17.58
2023-04-14T12:10:23.326Z,17.96
2023-04-14T12:15:23.260Z,18.01
2023-04-14T12:20:23.273Z,17.61
2023-04-14T12:25:23.144Z,18.27
2023-04-14T12:30:23.090Z,18.53
2023-04-14T12:35:23.040Z,17.89
2023-04-14T12:40:22.991Z,17.43
2023-04-14T12:45:22.935Z,17.59
2023-04-14T12:50:22.864Z,17.72
2023-04-14T12:55:22.856Z,18.58
2023-04-14T13:00:22.781Z,18.63
2023-04-14T13:05:22.711Z,18.70
2023-04-14T13:10:22.647Z,18.86
2023-04-14T13:16:12.119Z,19.28
2023-04-14T13:20:22.559Z,19.32
2023-04-14T13:25:22.481Z,19.28
2023-04-14T13:30:22.435Z,19.34
2023-04-14T13:35:22.388Z,19.53
2023-04-14T13:40:22.368Z,19.61
2023-04-14T13:45:22.290Z,18.72
2023-04-14T13:50:22.219Z,19.40
2023-04-14T13:55:22.160Z,19.53
2023-04-14T14:00:22.142Z,19.50
2023-04-14T14:05:22.051Z,19.36
2023-04-14T14:10:21.991Z,18.90
2023-04-14T14:15:21.940Z,19.11
2023-04-14T14:20:21.915Z,19.41
2023-04-14T14:25:21.855Z,19.27
2023-04-14T14:30:21.819Z,19.33
2023-04-14T14:35:21.723Z,18.70
2023-04-14T14:40:21.686Z,18.52
2023-04-14T14:45:31.359Z,17.64
2023-04-14T14:50:22.555Z,17.19
2023-04-14T14:55:21.452Z,17.15
2023-04-14T15:00:21.424Z,17.20
2023-04-14T15:05:21.347Z,17.24
2023-04-14T15:10:21.299Z,17.41
2023-04-14T15:15:21.269Z,17.40
2023-04-14T15:20:21.249Z,18.40
2023-04-14T15:25:21.180Z,18.74
2023-04-14T15:30:21.139Z,18.53
2023-04-14T15:35:21.093Z,18.84
2023-04-14T15:40:21.065Z,19.25
2023-04-14T15:45:20.976Z,19.46
2023-04-14T15:50:20.921Z,19.25
2023-04-14T15:55:20.860Z,18.84
2023-04-14T16:00:20.828Z,18.58
2023-04-14T16:05:20.873Z,18.88
2023-04-14T16:10:20.720Z,18.72
2023-04-14T16:15:20.651Z,18.30
2023-04-14T16:20:20.627Z,17.91
2023-04-14T16:25:21.662Z,18.02
2023-04-14T16:30:20.500Z,17.82
2023-04-14T16:35:20.441Z,17.73
2023-04-14T16:40:20.412Z,17.15
2023-04-14T16:45:20.811Z,16.61
2023-04-14T16:50:20.313Z,16.38
2023-04-14T16:55:20.251Z,16.04
2023-04-14T17:00:20.172Z,15.76
2023-04-14T17:05:20.264Z,15.91
2023-04-14T17:10:20.168Z,15.85
2023-04-14T17:15:19.971Z,15.76
2023-04-14T17:20:19.935Z,15.76
2023-04-14T17:25:19.883Z,15.63
2023-04-14T17:30:19.803Z,15.55
2023-04-14T17:35:19.758Z,15.46
2023-04-14T17:40:19.717Z,15.36
2023-04-14T17:45:19.650Z,15.27
2023-04-14T17:50:19.581Z,15.19
2023-04-14T17:55:19.525Z,15.00
2023-04-14T18:00:19.492Z,14.78
2023-04-14T18:05:19.425Z,14.51
2023-04-14T18:10:19.364Z,14.42
2023-04-14T18:15:19.313Z,14.07
2023-04-14T18:20:19.301Z,14.05
2023-04-14T18:25:20.273Z,13.95
2023-04-14T18:30:19.152Z,13.97
2023-04-14T18:35:19.090Z,13.84
2023-04-14T18:40:19.062Z,13.58
2023-04-14T18:45:18.984Z,13.45
2023-04-14T18:50:18.928Z,13.26
2023-04-14T18:55:18.871Z,13.09
2023-04-14T19:00:18.840Z,12.97
2023-04-14T19:05:18.774Z,12.87
2023-04-14T19:10:18.720Z,12.81
2023-04-14T19:15:18.657Z,12.73
2023-04-14T19:20:18.614Z,12.57
2023-04-14T19:25:18.598Z,12.26
2023-04-14T19:30:18.496Z,11.97
2023-04-14T19:35:18.456Z,11.76
2023-04-14T19:40:18.401Z,11.59
2023-04-14T19:45:18.328Z,11.69
2023-04-14T19:50:18.266Z,11.76
2023-04-14T19:55:18.207Z,11.74
2023-04-14T20:00:18.169Z,11.76
2023-04-14T20:05:18.100Z,11.59
2023-04-14T20:10:18.042Z,11.43
2023-04-14T20:15:17.989Z,11.31
2023-04-14T20:20:17.965Z,11.23
2023-04-14T20:25:17.885Z,11.17
2023-04-14T20:30:17.828Z,11.01
2023-04-14T20:35:17.772Z,10.90
2023-04-14T20:40:17.772Z,10.87
2023-04-14T20:45:17.669Z,10.75
2023-04-14T20:50:17.607Z,10.72
2023-04-14T20:55:17.556Z,10.62
2023-04-14T21:00:17.533Z,10.56
2023-04-14T21:05:17.472Z,10.54
2023-04-14T21:10:17.413Z,10.40
2023-04-14T21:15:47.484Z,10.34
2023-04-14T21:20:18.308Z,10.28
2023-04-14T21:25:17.240Z,10.13
2023-04-14T21:30:17.210Z,10.04
2023-04-14T21:35:17.122Z,9.92
2023-04-14T21:40:17.088Z,9.85
2023-04-14T21:45:17.012Z,9.82
2023-04-14T21:50:16.966Z,9.79
2023-04-14T21:55:16.905Z,10.07
2023-04-14T22:00:16.878Z,10.03
2023-04-14T22:05:16.797Z,9.97
2023-04-14T22:10:16.744Z,9.79
2023-04-14T22:15:16.918Z,9.72
2023-04-14T22:20:16.677Z,9.70
2023-04-14T22:25:16.589Z,9.57
2023-04-14T22:30:16.526Z,9.34
2023-04-14T22:35:16.476Z,9.28
2023-04-14T22:40:16.463Z,9.32
2023-04-14T22:45:16.396Z,9.32
2023-04-14T22:50:16.313Z,9.35
2023-04-14T22:55:16.277Z,9.31
2023-04-14T23:00:16.233Z,9.27
2023-04-14T23:05:16.155Z,9.19
2023-04-14T23:10:16.101Z,9.12
2023-04-14T23:15:16.052Z,9.07
2023-04-14T23:20:16.014Z,9.04
2023-04-14T23:25:15.941Z,8.88
